createdAt,value
2018-07-15T00:00:32.327Z,16.19
2018-07-15T00:03:00.991Z,16.12
2018-07-15T00:05:29.796Z,16.06
2018-07-15T00:07:58.397Z,16.08
2018-07-15T00:10:27.136Z,16.17
2018-07-15T00:12:55.799Z,16.12
2018-07-15T00:15:24.485Z,16.12
2018-07-15T00:17:53.112Z,16.07
2018-07-15T00:20:21.760Z,16.21
2018-07-15T00:22:50.434Z,16.19
2018-07-15T00:25:19.136Z,16.15
2018-07-15T00:27:47.805Z,16.12
2018-07-15T00:30:16.483Z,16.08
2018-07-15T00:32:45.103Z,16.04
2018-07-15T00:35:13.788Z,16.10
2018-07-15T00:37:42.505Z,16.07
2018-07-15T00:40:11.196Z,16.00
2018-07-15T00:42:39.825Z,16.01
2018-07-15T00:45:08.533Z,16.03
2018-07-15T00:47:37.177Z,16.06
2018-07-15T00:50:05.952Z,16.05
2018-07-15T00:52:34.551Z,16.08
2018-07-15T00:55:03.287Z,16.07
2018-07-15T00:57:32.154Z,15.97
2018-07-15T01:00:00.802Z,15.95
2018-07-15T01:02:29.436Z,15.99
2018-07-15T01:04:58.035Z,16.11
2018-07-15T01:07:26.702Z,16.13
2018-07-15T01:09:55.367Z,16.05
2018-07-15T01:12:24.025Z,16.10
2018-07-15T01:14:52.648Z,16.08
2018-07-15T01:17:21.287Z,16.12
2018-07-15T01:19:49.880Z,16.11
2018-07-15T01:22:18.508Z,16.20
2018-07-15T01:24:47.127Z,16.05
2018-07-15T01:27:15.763Z,16.10
2018-07-15T01:29:44.383Z,16.08
2018-07-15T01:32:13.026Z,16.10
2018-07-15T01:34:41.635Z,16.16
2018-07-15T01:37:10.269Z,16.14
2018-07-15T01:39:38.908Z,16.04
2018-07-15T01:42:07.536Z,16.13
2018-07-15T01:44:36.196Z,16.07
2018-07-15T01:47:04.960Z,16.07
2018-07-15T01:49:33.635Z,16.11
2018-07-15T01:52:02.296Z,16.06
2018-07-15T01:54:31.051Z,15.99
2018-07-15T01:56:59.711Z,15.95
2018-07-15T01:59:28.362Z,15.93
2018-07-15T02:01:56.974Z,15.98
2018-07-15T02:04:25.649Z,15.90
2018-07-15T02:06:54.276Z,15.92
2018-07-15T02:09:22.947Z,15.93
2018-07-15T02:11:51.599Z,15.95
2018-07-15T02:14:20.212Z,15.91
2018-07-15T02:16:48.819Z,15.87
2018-07-15T02:19:17.415Z,15.92
2018-07-15T02:21:46.051Z,15.91
2018-07-15T02:24:14.680Z,15.98
2018-07-15T02:26:43.300Z,15.98
2018-07-15T02:29:12.106Z,15.98
2018-07-15T02:31:40.719Z,16.05
2018-07-15T02:34:10.446Z,16.06
2018-07-15T02:36:39.082Z,16.10
2018-07-15T02:39:09.070Z,16.13
2018-07-15T02:41:37.704Z,16.15
2018-07-15T02:44:06.931Z,16.21
2018-07-15T02:46:35.646Z,16.21
2018-07-15T02:49:04.283Z,16.24
2018-07-15T02:51:33.028Z,16.18
2018-07-15T02:54:01.738Z,16.19
2018-07-15T02:56:30.322Z,16.28
2018-07-15T02:58:58.942Z,16.22
2018-07-15T03:01:27.635Z,16.20
2018-07-15T03:03:56.405Z,16.18
2018-07-15T03:06:25.208Z,16.22
2018-07-15T03:08:53.807Z,16.26
2018-07-15T03:11:22.461Z,16.22
2018-07-15T03:13:51.154Z,16.26
2018-07-15T03:16:19.971Z,16.29
2018-07-15T03:18:48.572Z,16.27
2018-07-15T03:21:17.224Z,16.21
2018-07-15T03:23:45.847Z,16.21
2018-07-15T03:26:14.572Z,16.22
2018-07-15T03:28:43.203Z,16.22
2018-07-15T03:31:11.820Z,16.21
2018-07-15T03:33:40.460Z,16.24
2018-07-15T03:36:09.115Z,16.19
2018-07-15T03:38:37.776Z,16.22
2018-07-15T03:41:06.432Z,16.17
2018-07-15T03:43:35.108Z,16.19
2018-07-15T03:46:03.750Z,16.18
2018-07-15T03:48:32.580Z,16.21
2018-07-15T03:51:01.265Z,16.19
2018-07-15T03:53:29.922Z,16.15
2018-07-15T03:55:58.561Z,16.18
2018-07-15T03:58:27.247Z,16.19
2018-07-15T04:00:55.900Z,16.21
2018-07-15T04:03:24.599Z,16.22
2018-07-15T04:05:53.202Z,16.22
2018-07-15T04:08:21.844Z,16.21
2018-07-15T04:10:51.109Z,16.27
2018-07-15T04:13:19.928Z,16.30
2018-07-15T04:15:48.545Z,16.34
2018-07-15T04:18:17.167Z,16.42
2018-07-15T04:20:45.810Z,16.34
2018-07-15T04:23:14.475Z,16.39
2018-07-15T04:25:43.098Z,16.41
2018-07-15T04:28:11.875Z,16.49
2018-07-15T04:30:40.424Z,16.51
2018-07-15T04:33:09.074Z,16.61
2018-07-15T04:35:37.699Z,16.56
2018-07-15T04:38:06.393Z,16.60
2018-07-15T04:40:35.033Z,16.63
2018-07-15T04:43:03.647Z,16.65
2018-07-15T04:45:32.344Z,16.69
2018-07-15T04:48:01.007Z,16.73
2018-07-15T04:50:29.664Z,16.73
2018-07-15T04:52:58.328Z,16.78
2018-07-15T04:55:26.940Z,16.86
2018-07-15T04:57:55.585Z,16.93
2018-07-15T05:00:24.252Z,16.99
2018-07-15T05:02:52.876Z,17.11
2018-07-15T05:05:21.534Z,17.26
2018-07-15T05:07:50.183Z,17.24
2018-07-15T05:10:18.824Z,17.30
2018-07-15T05:12:47.488Z,17.33
2018-07-15T05:15:16.167Z,17.30
2018-07-15T05:17:44.842Z,17.34
2018-07-15T05:20:13.496Z,17.40
2018-07-15T05:22:42.135Z,17.52
2018-07-15T05:25:10.835Z,17.46
2018-07-15T05:27:39.508Z,17.61
2018-07-15T05:30:08.145Z,17.62
2018-07-15T05:32:36.803Z,17.60
2018-07-15T05:35:05.530Z,17.68
2018-07-15T05:37:34.203Z,17.87
2018-07-15T05:40:02.909Z,17.97
2018-07-15T05:42:31.553Z,18.26
2018-07-15T05:45:00.196Z,18.28
2018-07-15T05:47:28.847Z,18.38
2018-07-15T05:49:58.533Z,18.39
2018-07-15T05:52:27.141Z,18.41
2018-07-15T05:54:55.828Z,18.48
2018-07-15T05:57:24.463Z,18.61
2018-07-15T05:59:53.113Z,18.40
2018-07-15T06:02:21.695Z,18.36
2018-07-15T06:04:50.324Z,18.33
2018-07-15T06:07:19.124Z,18.28
2018-07-15T06:09:47.720Z,18.22
2018-07-15T06:12:16.458Z,18.40
2018-07-15T06:14:45.312Z,18.32
2018-07-15T06:17:14.040Z,18.40
2018-07-15T06:19:42.659Z,18.46
2018-07-15T06:22:11.337Z,18.34
2018-07-15T06:24:39.988Z,18.22
2018-07-15T06:27:08.628Z,18.26
2018-07-15T06:29:37.377Z,18.49
2018-07-15T06:32:06.349Z,18.64
2018-07-15T06:34:35.079Z,18.52
2018-07-15T06:37:04.089Z,18.55
2018-07-15T06:39:32.876Z,18.59
2018-07-15T06:42:01.616Z,18.70
2018-07-15T06:44:30.317Z,18.66
2018-07-15T06:46:59.012Z,18.83
2018-07-15T06:49:27.672Z,18.80
2018-07-15T06:51:56.387Z,18.83
2018-07-15T06:54:25.090Z,18.78
2018-07-15T06:56:53.755Z,18.78
2018-07-15T06:59:22.471Z,18.88
2018-07-15T07:01:51.135Z,19.08
2018-07-15T07:04:19.771Z,19.25
2018-07-15T07:06:48.510Z,19.39
2018-07-15T07:09:17.206Z,19.72
2018-07-15T07:11:46.029Z,19.85
2018-07-15T07:14:14.696Z,19.76
2018-07-15T07:16:43.328Z,19.88
2018-07-15T07:19:12.144Z,19.95
2018-07-15T07:21:41.392Z,19.84
2018-07-15T07:24:10.071Z,19.72
2018-07-15T07:26:38.755Z,20.05
2018-07-15T07:29:07.443Z,20.60
2018-07-15T07:34:10.989Z,20.63
2018-07-15T07:36:39.637Z,21.04
2018-07-15T07:39:08.346Z,21.23
2018-07-15T07:41:37.203Z,21.24
2018-07-15T07:44:05.830Z,21.30
2018-07-15T07:46:34.493Z,21.67
2018-07-15T07:49:03.167Z,21.51
2018-07-15T07:51:31.851Z,21.07
2018-07-15T07:54:00.633Z,21.38
2018-07-15T07:56:29.341Z,20.86
2018-07-15T07:58:57.984Z,20.80
2018-07-15T08:01:26.688Z,21.00
2018-07-15T08:03:55.401Z,20.77
2018-07-15T08:06:24.048Z,20.68
2018-07-15T08:08:52.673Z,20.58
2018-07-15T08:11:21.339Z,20.59
2018-07-15T08:13:50.052Z,20.54
2018-07-15T08:16:18.723Z,20.79
2018-07-15T08:18:47.321Z,20.79
2018-07-15T08:21:15.984Z,21.06
2018-07-15T08:23:44.672Z,21.10
2018-07-15T08:26:13.341Z,20.91
2018-07-15T08:28:41.967Z,21.10
2018-07-15T08:31:18.411Z,21.21
2018-07-15T08:33:47.088Z,21.84
2018-07-15T08:36:15.971Z,22.10
2018-07-15T08:38:44.647Z,22.31
2018-07-15T08:41:13.303Z,22.31
2018-07-15T08:43:42.042Z,22.23
2018-07-15T08:46:10.988Z,22.41
2018-07-15T08:48:39.789Z,22.70
2018-07-15T08:51:08.454Z,22.52
2018-07-15T08:53:37.112Z,22.42
2018-07-15T08:56:05.832Z,22.68
2018-07-15T08:58:34.517Z,22.04
2018-07-15T09:01:03.257Z,21.78
2018-07-15T09:03:31.911Z,21.60
2018-07-15T09:06:00.592Z,21.88
2018-07-15T09:08:29.611Z,22.17
2018-07-15T09:10:58.518Z,22.39
2018-07-15T09:13:27.196Z,22.55
2018-07-15T09:15:55.880Z,22.06
2018-07-15T09:18:24.577Z,21.99
2018-07-15T09:20:53.259Z,21.84
2018-07-15T09:23:21.980Z,22.14
2018-07-15T09:25:50.833Z,22.17
2018-07-15T09:28:19.556Z,22.73
2018-07-15T09:30:48.208Z,22.36
2018-07-15T09:33:16.911Z,22.46
2018-07-15T09:35:45.592Z,22.18
2018-07-15T09:38:14.302Z,22.19
2018-07-15T09:40:42.928Z,21.91
2018-07-15T09:43:11.571Z,21.85
2018-07-15T09:45:40.597Z,21.55
2018-07-15T09:48:09.281Z,21.93
2018-07-15T09:50:37.905Z,21.60
2018-07-15T09:53:06.998Z,21.22
2018-07-15T09:55:35.626Z,21.23
2018-07-15T09:58:04.407Z,21.65
2018-07-15T10:00:38.576Z,21.99
2018-07-15T10:03:07.559Z,21.98
2018-07-15T10:05:36.265Z,22.13
2018-07-15T10:08:05.230Z,22.93
2018-07-15T10:10:33.970Z,23.09
2018-07-15T10:13:02.661Z,23.27
2018-07-15T10:15:31.398Z,23.36
2018-07-15T10:18:00.132Z,23.83
2018-07-15T10:20:28.877Z,23.71
2018-07-15T10:22:57.659Z,23.90
2018-07-15T10:25:26.400Z,24.25
2018-07-15T10:27:55.084Z,25.05
2018-07-15T10:30:23.786Z,25.15
2018-07-15T10:32:52.982Z,24.39
2018-07-15T10:35:21.855Z,24.72
2018-07-15T10:37:50.921Z,25.05
2018-07-15T10:40:19.673Z,24.66
2018-07-15T10:42:48.467Z,24.39
2018-07-15T10:45:17.103Z,24.65
2018-07-15T10:47:45.815Z,24.79
2018-07-15T10:50:14.509Z,24.85
2018-07-15T10:52:43.223Z,24.78
2018-07-15T10:55:11.880Z,25.44
2018-07-15T10:57:40.537Z,25.61
2018-07-15T11:00:09.357Z,25.49
2018-07-15T11:02:38.015Z,24.94
2018-07-15T11:05:06.855Z,25.19
2018-07-15T11:07:36.763Z,25.20
2018-07-15T11:10:05.573Z,25.29
2018-07-15T11:12:34.266Z,25.87
2018-07-15T11:15:03.042Z,25.64
2018-07-15T11:17:32.045Z,25.89
2018-07-15T11:20:00.668Z,25.59
2018-07-15T11:22:29.363Z,26.06
2018-07-15T11:24:58.266Z,26.05
2018-07-15T11:27:27.036Z,25.42
2018-07-15T11:29:55.729Z,25.32
2018-07-15T11:32:24.394Z,25.19
2018-07-15T11:34:53.026Z,24.86
2018-07-15T11:37:21.780Z,25.25
2018-07-15T11:39:50.828Z,24.72
2018-07-15T11:42:19.547Z,24.76
2018-07-15T11:44:48.593Z,25.00
2018-07-15T11:47:17.375Z,25.10
2018-07-15T11:49:46.058Z,25.15
2018-07-15T11:52:14.696Z,25.59
2018-07-15T11:54:43.479Z,25.99
2018-07-15T11:57:12.231Z,26.06
2018-07-15T11:59:40.955Z,26.22
2018-07-15T12:02:09.767Z,26.41
2018-07-15T12:04:38.467Z,25.73
2018-07-15T12:07:07.108Z,25.83
2018-07-15T12:09:35.795Z,26.32
2018-07-15T12:12:04.513Z,25.94
2018-07-15T12:14:33.226Z,25.99
2018-07-15T12:17:01.844Z,26.16
2018-07-15T12:19:30.532Z,26.20
2018-07-15T12:21:59.170Z,26.28
2018-07-15T12:24:27.884Z,26.12
2018-07-15T12:26:56.770Z,26.26
2018-07-15T12:29:25.475Z,26.58
2018-07-15T12:31:54.132Z,26.13
2018-07-15T12:34:23.113Z,26.97
2018-07-15T12:36:51.823Z,27.02
2018-07-15T12:39:20.660Z,27.11
2018-07-15T12:41:49.329Z,27.16
2018-07-15T12:44:18.032Z,27.19
2018-07-15T12:46:46.712Z,26.79
2018-07-15T12:49:15.429Z,27.00
2018-07-15T12:51:44.101Z,26.73
2018-07-15T12:54:12.756Z,26.58
2018-07-15T12:56:41.409Z,26.97
2018-07-15T12:59:10.161Z,26.98
2018-07-15T13:01:38.820Z,27.13
2018-07-15T13:04:07.539Z,26.89
2018-07-15T13:06:36.328Z,27.04
2018-07-15T13:09:05.529Z,27.19
2018-07-15T13:11:34.224Z,26.79
2018-07-15T13:14:02.900Z,26.33
2018-07-15T13:16:31.846Z,26.38
2018-07-15T13:19:00.552Z,26.66
2018-07-15T13:21:29.529Z,26.84
2018-07-15T13:23:58.144Z,27.10
2018-07-15T13:26:26.792Z,26.76
2018-07-15T13:28:55.502Z,26.91
2018-07-15T13:31:24.152Z,27.01
2018-07-15T13:33:52.872Z,26.96
2018-07-15T13:36:21.537Z,26.97
2018-07-15T13:38:50.321Z,26.36
2018-07-15T13:41:18.974Z,26.66
2018-07-15T13:43:47.634Z,26.79
2018-07-15T13:46:16.392Z,26.64
2018-07-15T13:48:45.052Z,26.71
2018-07-15T13:51:13.704Z,26.46
2018-07-15T13:53:42.395Z,26.32
2018-07-15T13:56:11.060Z,26.52
2018-07-15T13:58:39.752Z,26.49
2018-07-15T14:01:08.656Z,26.50
2018-07-15T14:03:37.643Z,26.64
2018-07-15T14:06:06.304Z,26.78
2018-07-15T14:08:34.909Z,26.91
2018-07-15T14:11:03.630Z,26.73
2018-07-15T14:13:32.347Z,26.19
2018-07-15T14:16:00.952Z,26.65
2018-07-15T14:18:29.649Z,26.57
2018-07-15T14:20:58.279Z,26.36
2018-07-15T14:23:26.904Z,26.37
2018-07-15T14:25:55.660Z,26.23
2018-07-15T14:28:24.325Z,26.33
2018-07-15T14:30:53.191Z,26.49
2018-07-15T14:33:21.888Z,26.32
2018-07-15T14:35:50.544Z,26.25
2018-07-15T14:38:19.409Z,26.20
2018-07-15T14:40:48.165Z,26.35
2018-07-15T14:43:16.820Z,25.73
2018-07-15T14:45:46.571Z,25.90
2018-07-15T14:48:15.236Z,25.94
2018-07-15T14:53:53.680Z,25.89
2018-07-15T14:56:22.314Z,25.46
2018-07-15T14:58:51.217Z,25.63
2018-07-15T15:01:20.573Z,25.67
2018-07-15T15:03:49.341Z,25.64
2018-07-15T15:06:18.138Z,25.81
2018-07-15T15:08:46.932Z,25.53
2018-07-15T15:11:15.709Z,25.42
2018-07-15T15:13:44.397Z,25.32
2018-07-15T15:16:13.194Z,25.63
2018-07-15T15:18:41.880Z,25.50
2018-07-15T15:21:11.267Z,25.40
2018-07-15T15:23:40.130Z,25.40
2018-07-15T15:26:08.811Z,25.27
2018-07-15T15:28:37.789Z,25.03
2018-07-15T15:31:06.697Z,25.06
2018-07-15T15:33:35.461Z,25.05
2018-07-15T15:36:04.922Z,24.93
2018-07-15T15:38:33.595Z,24.68
2018-07-15T15:41:02.325Z,24.74
2018-07-15T15:43:31.066Z,24.53
2018-07-15T15:45:59.772Z,24.54
2018-07-15T15:48:28.496Z,24.57
2018-07-15T15:50:57.504Z,24.66
2018-07-15T15:53:27.296Z,24.60
2018-07-15T15:55:56.063Z,24.58
2018-07-15T15:58:24.826Z,24.61
2018-07-15T16:00:53.481Z,24.44
2018-07-15T16:03:22.346Z,24.53
2018-07-15T16:05:51.047Z,24.54
2018-07-15T16:08:20.328Z,24.48
2018-07-15T16:10:49.084Z,24.49
2018-07-15T16:13:17.746Z,24.48
2018-07-15T16:15:46.509Z,24.49
2018-07-15T16:18:15.234Z,24.40
2018-07-15T16:20:44.026Z,24.20
2018-07-15T16:23:12.793Z,24.34
2018-07-15T16:25:41.543Z,24.30
2018-07-15T16:28:10.232Z,24.21
2018-07-15T16:30:38.984Z,24.25
2018-07-15T16:33:07.681Z,24.24
2018-07-15T16:35:36.468Z,24.30
2018-07-15T16:38:05.257Z,24.19
2018-07-15T16:40:33.993Z,23.95
2018-07-15T16:43:02.744Z,23.82
2018-07-15T16:45:31.560Z,23.89
2018-07-15T16:48:00.276Z,23.75
2018-07-15T16:50:31.103Z,23.71
2018-07-15T16:52:59.841Z,23.71
2018-07-15T16:55:28.748Z,23.80
2018-07-15T16:57:57.581Z,23.80
2018-07-15T17:00:26.314Z,23.75
2018-07-15T17:02:55.069Z,23.64
2018-07-15T17:05:24.780Z,23.72
2018-07-15T17:07:53.480Z,23.65
2018-07-15T17:10:22.953Z,23.67
2018-07-15T17:12:51.691Z,23.66
2018-07-15T17:15:20.420Z,23.55
2018-07-15T17:17:49.141Z,23.53
2018-07-15T17:20:17.795Z,23.58
2018-07-15T17:22:46.514Z,23.61
2018-07-15T17:25:15.266Z,23.50
2018-07-15T17:27:43.998Z,23.50
2018-07-15T17:30:12.735Z,23.44
2018-07-15T17:32:41.477Z,23.50
2018-07-15T17:35:10.206Z,23.43
2018-07-15T17:37:38.973Z,23.38
2018-07-15T17:40:07.682Z,23.42
2018-07-15T17:42:36.422Z,23.52
2018-07-15T17:45:11.961Z,23.46
2018-07-15T17:47:40.672Z,23.44
2018-07-15T17:50:09.360Z,23.34
2018-07-15T17:52:38.126Z,23.25
2018-07-15T17:55:06.845Z,23.41
2018-07-15T17:57:35.566Z,23.58
2018-07-15T18:00:05.020Z,23.57
2018-07-15T18:02:33.722Z,23.59
2018-07-15T18:05:02.382Z,23.59
2018-07-15T18:07:31.933Z,23.53
2018-07-15T18:10:00.717Z,23.37
2018-07-15T18:12:29.360Z,23.34
2018-07-15T18:14:58.163Z,23.28
2018-07-15T18:17:27.006Z,23.39
2018-07-15T18:19:55.852Z,23.25
2018-07-15T18:22:24.423Z,23.32
2018-07-15T18:24:53.140Z,23.17
2018-07-15T18:27:21.892Z,23.24
2018-07-15T18:29:50.444Z,23.18
2018-07-15T18:32:19.122Z,23.21
2018-07-15T18:34:48.093Z,23.36
2018-07-15T18:37:16.835Z,23.20
2018-07-15T18:39:46.516Z,23.00
2018-07-15T18:42:16.617Z,22.84
2018-07-15T18:44:45.276Z,22.94
2018-07-15T18:47:14.504Z,22.93
2018-07-15T18:49:43.746Z,22.77
2018-07-15T18:52:12.563Z,22.70
2018-07-15T18:54:41.277Z,22.67
2018-07-15T18:57:09.909Z,22.80
2018-07-15T18:59:38.653Z,22.80
2018-07-15T19:02:07.331Z,22.67
2018-07-15T19:04:36.185Z,22.66
2018-07-15T19:07:04.810Z,22.56
2018-07-15T19:09:33.866Z,22.40
2018-07-15T19:12:02.521Z,22.47
2018-07-15T19:14:31.227Z,22.47
2018-07-15T19:16:59.922Z,22.44
2018-07-15T19:19:29.433Z,22.46
2018-07-15T19:21:58.072Z,22.24
2018-07-15T19:24:26.797Z,22.18
2018-07-15T19:26:55.461Z,22.16
2018-07-15T19:29:24.741Z,22.08
2018-07-15T19:31:53.811Z,22.11
2018-07-15T19:34:22.577Z,22.08
2018-07-15T19:36:51.260Z,22.13
2018-07-15T19:39:19.945Z,22.20
2018-07-15T19:41:49.322Z,22.10
2018-07-15T19:44:18.034Z,22.17
2018-07-15T19:46:46.801Z,22.19
2018-07-15T19:49:15.883Z,22.16
2018-07-15T19:51:45.112Z,22.11
2018-07-15T19:54:13.867Z,21.99
2018-07-15T19:56:42.680Z,21.94
2018-07-15T19:59:11.366Z,21.81
2018-07-15T20:01:42.808Z,21.82
2018-07-15T20:04:11.806Z,21.91
2018-07-15T20:06:40.440Z,21.78
2018-07-15T20:09:09.324Z,21.68
2018-07-15T20:11:37.976Z,21.52
2018-07-15T20:14:06.664Z,21.53
2018-07-15T20:16:35.341Z,21.29
2018-07-15T20:19:04.275Z,21.28
2018-07-15T20:21:34.148Z,21.32
2018-07-15T20:24:02.861Z,21.25
2018-07-15T20:26:32.138Z,21.16
2018-07-15T20:29:01.163Z,21.05
2018-07-15T20:31:29.897Z,20.92
2018-07-15T20:33:59.618Z,20.87
2018-07-15T20:36:28.657Z,20.62
2018-07-15T20:38:57.490Z,20.83
2018-07-15T20:41:26.294Z,20.77
2018-07-15T20:43:55.155Z,20.63
2018-07-15T20:46:23.911Z,20.62
2018-07-15T20:48:52.606Z,20.54
2018-07-15T20:51:21.248Z,20.51
2018-07-15T20:53:49.978Z,20.46
2018-07-15T20:56:18.716Z,20.47
2018-07-15T20:58:47.591Z,20.58
2018-07-15T21:01:16.312Z,20.45
2018-07-15T21:03:45.305Z,20.33
2018-07-15T21:06:14.094Z,20.37
2018-07-15T21:08:42.801Z,20.15
2018-07-15T21:11:11.571Z,20.17
2018-07-15T21:13:40.332Z,20.05
2018-07-15T21:16:09.058Z,20.03
2018-07-15T21:18:38.197Z,20.00
2018-07-15T21:21:07.261Z,19.98
2018-07-15T21:23:35.943Z,19.81
2018-07-15T21:26:04.724Z,19.59
2018-07-15T21:28:33.600Z,19.59
2018-07-15T21:31:02.727Z,19.55
2018-07-15T21:33:31.506Z,19.57
2018-07-15T21:36:00.396Z,19.59
2018-07-15T21:38:29.133Z,19.67
2018-07-15T21:40:58.098Z,19.60
2018-07-15T21:43:26.940Z,19.50
2018-07-15T21:45:55.884Z,19.55
2018-07-15T21:48:24.915Z,19.58
2018-07-15T21:50:54.763Z,19.41
2018-07-15T21:53:23.730Z,19.36
2018-07-15T21:55:52.519Z,19.35
2018-07-15T21:58:21.523Z,19.48
2018-07-15T22:00:50.545Z,19.45
2018-07-15T22:03:19.267Z,19.54
2018-07-15T22:05:48.116Z,19.59
2018-07-15T22:08:28.032Z,19.43
2018-07-15T22:10:56.760Z,19.30
2018-07-15T22:13:25.864Z,19.43
2018-07-15T22:15:54.622Z,19.37
2018-07-15T22:18:24.905Z,19.35
2018-07-15T22:20:53.597Z,19.41
2018-07-15T22:23:22.437Z,19.39
2018-07-15T22:25:51.456Z,19.43
2018-07-15T22:28:20.222Z,19.50
2018-07-15T22:30:49.319Z,19.39
2018-07-15T22:33:17.995Z,19.33
2018-07-15T22:35:47.476Z,19.35
2018-07-15T22:38:16.130Z,19.45
2018-07-15T22:40:44.792Z,19.40
2018-07-15T22:43:13.460Z,19.31
2018-07-15T22:45:42.128Z,19.29
2018-07-15T22:48:10.810Z,19.28
2018-07-15T22:50:39.570Z,19.33
2018-07-15T22:53:08.236Z,19.22
2018-07-15T22:55:36.911Z,19.17
2018-07-15T22:58:05.761Z,19.32
2018-07-15T23:00:34.444Z,19.13
2018-07-15T23:03:03.120Z,18.93
2018-07-15T23:05:44.535Z,18.76
2018-07-15T23:08:13.267Z,18.66
2018-07-15T23:10:42.062Z,18.86
2018-07-15T23:13:11.484Z,18.86
2018-07-15T23:15:40.597Z,19.15
2018-07-15T23:18:09.727Z,19.43
2018-07-15T23:20:40.121Z,19.43
2018-07-15T23:23:09.663Z,19.56
2018-07-15T23:25:38.328Z,19.44
2018-07-15T23:28:08.718Z,19.58
2018-07-15T23:30:38.258Z,19.68
2018-07-15T23:33:07.477Z,19.65
2018-07-15T23:35:36.143Z,19.37
2018-07-15T23:38:04.947Z,19.67
2018-07-15T23:40:33.648Z,19.81
2018-07-15T23:43:02.784Z,19.52
2018-07-15T23:45:32.440Z,19.50
2018-07-15T23:48:01.216Z,19.31
2018-07-15T23:50:29.907Z,19.21
2018-07-15T23:52:58.591Z,19.02
2018-07-15T23:55:27.273Z,18.97
2018-07-15T23:57:56.065Z,18.82
